EDT,Max TemperatureF,Mean TemperatureF,Min TemperatureF,Max Dew PointF,MeanDew PointF,Min DewpointF,Max Humidity, Mean Humidity, Min Humidity, Max Sea Level PressureIn, Mean Sea Level PressureIn, Min Sea Level PressureIn, Max VisibilityMiles, Mean VisibilityMiles, Min VisibilityMiles, Max Wind SpeedMPH, Mean Wind SpeedMPH, Max Gust SpeedMPH,PrecipitationIn, CloudCover, Events, WindDirDegrees
2013-3-1,30,28,26,27,23,20,85,79,72,29.99,29.92,29.81,10,9,6,13,9,,0.00,8,Snow,339
2013-3-2,26,24,21,23,18,15,86,80,74,30.00,29.96,29.92,10,6,2,13,9,,0.00,8,Snow,323
2013-3-3,26,24,21,19,18,14,93,79,69,29.99,29.93,29.89,10,6,1,13,8,22,0.01,8,Snow,297
2013-3-4,28,24,21,21,18,14,80,73,68,30.11,30.05,29.96,10,9,2,15,10,24,0.00,8,Snow,283
2013-3-5,33,29,25,24,21,19,79,73,66,30.12,30.03,29.88,10,10,10,16,6,,0.00,4,,10
2013-3-6,39,32,25,30,26,21,89,76,65,30.16,30.04,29.89,10,10,10,13,9,,0.00,5,,33
2013-3-7,33,32,30,32,30,28,100,92,85,30.31,30.23,30.15,10,4,0,7,2,,0.06,8,Fog-Snow,299
2013-3-8,39,34,28,32,28,22,100,83,57,30.44,30.38,30.29,10,8,2,10,7,,0.00,5,,311
2013-3-9,44,31,23,31,28,21,93,84,43,30.43,30.35,30.15,10,6,0,8,5,,0.00,2,Fog,346
2013-3-10,66,57,48,31,25,19,33,30,25,30.14,30.02,29.91,10,10,10,23,15,34,0.00,1,,182
2013-3-11,63,53,44,45,31,26,93,44,28,29.91,29.78,29.61,10,9,4,28,18,40,0.18,4,Rain,177
2013-3-12,43,40,33,45,31,27,93,81,73,29.95,29.85,29.72,10,10,6,18,13,32,0.06,8,Rain-Snow,239
2013-3-13,34,28,24,28,23,14,93,77,58,30.06,29.93,29.86,10,6,0,25,14,38,0.00,8,Fog-Snow,252
2013-3-14,30,26,23,22,19,14,88,73,54,30.17,30.10,30.06,10,8,2,21,14,30,0.00,7,Snow,288
2013-3-15,33,30,26,31,27,18,96,82,64,30.09,29.88,29.83,10,5,1,22,13,34,0.01,7,Snow,241
2013-3-16,30,28,21,23,20,17,82,73,69,30.02,29.88,29.81,10,9,2,17,7,24,0.00,7,Snow,41
2013-3-17,32,24,19,20,17,11,92,67,56,30.33,30.19,30.03,10,10,4,12,6,17,0.00,4,Snow,343
2013-3-18,37,28,19,31,22,11,86,72,48,30.30,29.91,29.63,10,8,2,20,10,32,0.22,5,Rain-Snow,111
2013-3-19,37,32,26,34,23,17,93,79,61,29.89,29.79,29.63,10,4,0,25,18,41,0.01,8,Snow,246
2013-3-20,30,27,24,23,19,13,86,72,53,29.89,29.86,29.84,10,6,1,20,15,31,0.00,8,Snow,265
2013-3-21,28,24,21,25,18,10,92,76,58,29.86,29.79,29.75,10,4,0,23,11,30,0.00,8,Fog-Snow,257
2013-3-22,30,28,26,25,22,19,88,79,69,30.01,29.88,29.80,10,6,1,20,12,30,0.00,8,Rain-Snow,260
2013-3-23,36,32,30,27,25,21,82,76,66,30.07,30.02,29.96,10,10,10,17,10,24,0.00,6,,264
2013-3-24,36,28,19,27,23,16,92,75,59,30.06,29.90,29.68,10,10,10,14,5,20,0.00,1,,21
2013-3-25,39,34,28,29,26,21,93,73,62,29.78,29.65,29.59,10,8,2,14,9,24,0.00,7,Snow,40
2013-3-26,41,36,30,31,28,26,85,76,67,30.02,29.90,29.79,10,10,10,17,8,28,0.00,7,,233
2013-3-27,36,34,32,31,29,26,96,83,75,30.12,30.07,30.01,10,6,1,21,14,34,0.01,8,Snow,242
2013-3-28,37,34,32,33,31,29,96,88,75,30.26,30.16,30.08,10,8,2,14,8,21,0.01,8,Snow,254
2013-3-29,45,39,33,32,29,23,85,69,53,30.25,30.23,30.19,10,10,10,16,8,21,0.00,4,,240
2013-3-30,48,38,28,28,23,18,76,57,32,30.25,30.17,30.03,10,10,10,8,4,,0.00,0,,242
2013-3-31,57,50,42,41,30,19,93,55,33,30.00,29.77,29.62,10,10,8,18,12,28,0.01,3,Rain,185